createdAt,value
2022-12-31T00:00:47.690Z,98520.19
2022-12-31T00:01:49.901Z,98526.41
2022-12-31T00:02:52.806Z,98519.81
2022-12-31T00:03:54.764Z,98520.91
2022-12-31T00:04:57.580Z,98518.53
2022-12-31T00:05:59.386Z,98519.56
2022-12-31T00:07:02.199Z,98526.66
2022-12-31T00:08:04.129Z,98520.03
2022-12-31T00:09:08.238Z,98516.19
2022-12-31T00:10:10.187Z,98517.34
2022-12-31T00:11:13.354Z,98526.94
2022-12-31T00:12:17.552Z,98522.72
2022-12-31T00:13:19.420Z,98521.88
2022-12-31T00:14:22.191Z,98516.69
2022-12-31T00:15:23.937Z,98516.53
2022-12-31T00:16:29.031Z,98518.06
2022-12-31T00:17:31.551Z,98513.50
2022-12-31T00:18:34.283Z,98514.16
2022-12-31T00:19:36.807Z,98510.59
2022-12-31T00:20:41.027Z,98510.38
2022-12-31T00:21:44.564Z,98509.31
2022-12-31T00:22:46.382Z,98502.31
2022-12-31T00:23:49.778Z,98503.13
2022-12-31T00:24:51.772Z,98511.63
2022-12-31T00:25:54.574Z,98514.94
2022-12-31T00:26:57.483Z,98516.59
2022-12-31T00:28:00.628Z,98509.81
2022-12-31T00:29:04.043Z,98520.97
2022-12-31T00:30:07.052Z,98523.41
2022-12-31T00:31:11.368Z,98521.63
2022-12-31T00:32:13.588Z,98524.09
2022-12-31T00:33:16.412Z,98529.19
2022-12-31T00:34:19.140Z,98533.34
2022-12-31T00:35:20.991Z,98517.88
2022-12-31T00:36:25.228Z,98522.97
2022-12-31T00:37:27.302Z,98522.06
2022-12-31T00:38:30.252Z,98515.22
2022-12-31T00:39:33.059Z,98521.16
2022-12-31T00:40:34.893Z,98527.88
2022-12-31T00:41:37.909Z,98526.22
2022-12-31T00:42:39.736Z,98529.56
2022-12-31T00:43:44.226Z,98531.25
2022-12-31T00:44:46.289Z,98534.69
2022-12-31T00:45:49.047Z,98528.66
2022-12-31T00:46:50.904Z,98538.09
2022-12-31T00:47:53.714Z,98542.31
2022-12-31T00:48:55.455Z,98544.06
2022-12-31T00:49:58.180Z,98538.09
2022-12-31T00:51:01.707Z,98539.03
2022-12-31T00:52:04.789Z,98540.78
2022-12-31T00:53:06.555Z,98533.16
2022-12-31T00:54:10.362Z,98533.22
2022-12-31T00:55:12.149Z,98533.16
2022-12-31T00:56:16.343Z,98528.03
2022-12-31T00:57:18.274Z,98525.31
2022-12-31T00:58:21.078Z,98523.47
2022-12-31T00:59:25.347Z,98526.75
2022-12-31T01:00:27.256Z,98533.53
2022-12-31T01:01:31.717Z,98530.91
2022-12-31T01:02:33.785Z,98538.66
2022-12-31T01:03:36.803Z,98542.88
2022-12-31T01:04:38.669Z,98548.84
2022-12-31T01:05:41.396Z,98543.69
2022-12-31T01:06:43.795Z,98555.59
2022-12-31T01:07:46.558Z,98553.03
2022-12-31T01:08:49.467Z,98547.06
2022-12-31T01:09:54.085Z,98555.59
2022-12-31T01:11:14.356Z,98550.47
2022-12-31T01:12:17.079Z,98548.72
2022-12-31T01:13:18.952Z,98552.13
2022-12-31T01:14:21.757Z,98547.84
2022-12-31T01:15:24.983Z,98549.50
2022-12-31T01:16:29.991Z,98551.28
2022-12-31T01:17:31.859Z,98538.47
2022-12-31T01:18:34.621Z,98547.06
2022-12-31T01:19:37.393Z,98544.50
2022-12-31T01:20:41.304Z,98546.25
2022-12-31T01:21:45.350Z,98537.75
2022-12-31T01:22:47.235Z,98534.38
2022-12-31T01:23:49.982Z,98538.66
2022-12-31T01:24:51.778Z,98545.53
2022-12-31T01:25:54.588Z,98552.31
2022-12-31T01:26:58.871Z,98560.81
2022-12-31T01:28:01.000Z,98563.28
2022-12-31T01:29:04.133Z,98564.00
2022-12-31T01:30:06.920Z,98567.41
2022-12-31T01:31:12.968Z,98563.84
2022-12-31T01:32:14.904Z,98565.41
2022-12-31T01:33:17.645Z,98570.47
2022-12-31T01:34:20.386Z,98569.44
2022-12-31T01:35:22.613Z,98573.63
2022-12-31T01:36:27.490Z,98583.75
2022-12-31T01:37:29.622Z,98587.94
2022-12-31T01:38:33.122Z,98579.31
2022-12-31T01:39:35.876Z,98570.59
2022-12-31T01:40:38.640Z,98572.13
2022-12-31T01:41:44.299Z,98575.31
2022-12-31T01:42:53.232Z,98578.53
2022-12-31T01:43:58.604Z,98568.13
2022-12-31T01:45:01.005Z,98574.81
2022-12-31T01:46:03.821Z,98559.25
2022-12-31T01:47:12.774Z,98564.19
2022-12-31T01:48:18.564Z,98550.31
2022-12-31T01:49:22.128Z,98552.75
2022-12-31T01:50:27.567Z,98551.66
2022-12-31T01:51:31.892Z,98554.97
2022-12-31T01:52:37.714Z,98545.41
2022-12-31T01:53:40.977Z,98535.97
2022-12-31T01:54:46.013Z,98534.16
2022-12-31T01:55:50.423Z,98529.00
2022-12-31T01:56:54.987Z,98540.94
2022-12-31T01:57:59.533Z,98553.88
2022-12-31T01:59:02.442Z,98562.47
2022-12-31T02:00:06.301Z,98569.28
2022-12-31T02:01:10.507Z,98557.25
2022-12-31T02:02:14.703Z,98552.91
2022-12-31T02:03:17.602Z,98553.59
2022-12-31T02:04:21.735Z,98548.41
2022-12-31T02:05:28.279Z,98553.47
2022-12-31T02:06:34.351Z,98549.16
2022-12-31T02:07:37.154Z,98543.09
2022-12-31T02:08:42.115Z,98547.22
2022-12-31T02:09:45.523Z,98547.97
2022-12-31T02:10:47.446Z,98552.97
2022-12-31T02:11:50.226Z,98546.91
2022-12-31T02:12:52.518Z,98543.38
2022-12-31T02:13:58.631Z,98544.28
2022-12-31T02:15:00.657Z,98536.56
2022-12-31T02:16:08.021Z,98528.03
2022-12-31T02:17:14.734Z,98532.50
2022-12-31T02:18:25.889Z,98540.25
2022-12-31T02:20:02.386Z,98545.66
2022-12-31T02:21:23.397Z,98552.75
2022-12-31T02:22:36.843Z,98558.88
2022-12-31T02:24:07.323Z,98553.75
2022-12-31T02:25:31.829Z,98555.31
2022-12-31T02:26:57.294Z,98559.41
2022-12-31T02:28:07.021Z,98556.72
2022-12-31T02:29:57.520Z,98557.34
2022-12-31T02:31:02.243Z,98553.78
2022-12-31T02:32:06.505Z,98551.09
2022-12-31T02:33:13.939Z,98552.59
2022-12-31T02:34:19.568Z,98552.56
2022-12-31T02:35:26.706Z,98553.38
2022-12-31T02:36:31.979Z,98547.19
2022-12-31T02:37:36.867Z,98544.63
2022-12-31T02:38:41.328Z,98552.19
2022-12-31T02:39:44.501Z,98539.34
2022-12-31T02:40:47.736Z,98533.28
2022-12-31T02:41:51.694Z,98529.84
2022-12-31T02:42:55.581Z,98525.53
2022-12-31T02:43:58.646Z,98524.47
2022-12-31T02:45:00.479Z,98525.97
2022-12-31T02:46:10.262Z,98535.09
2022-12-31T02:47:21.180Z,98528.81
2022-12-31T02:48:36.682Z,98526.63
2022-12-31T02:49:45.285Z,98519.53
2022-12-31T02:50:56.300Z,98524.28
2022-12-31T02:52:01.616Z,98515.53
2022-12-31T02:53:17.459Z,98506.59
2022-12-31T02:54:28.238Z,98506.38
2022-12-31T02:55:36.082Z,98501.81
2022-12-31T02:56:41.859Z,98500.78
2022-12-31T02:57:49.715Z,98497.97
2022-12-31T02:59:25.938Z,98489.25
2022-12-31T03:00:48.137Z,98480.66
2022-12-31T03:02:14.103Z,98482.44
2022-12-31T03:03:17.125Z,98469.50
2022-12-31T03:04:34.745Z,98465.03
2022-12-31T03:05:40.313Z,98463.97
2022-12-31T03:06:42.301Z,98452.78
2022-12-31T03:07:45.792Z,98450.97
2022-12-31T03:09:14.711Z,98464.41
2022-12-31T03:10:18.100Z,98469.25
2022-12-31T03:11:35.309Z,98468.94
2022-12-31T03:12:47.040Z,98478.06
2022-12-31T03:13:49.032Z,98480.50
2022-12-31T03:14:52.256Z,98492.34
2022-12-31T03:15:55.005Z,98498.25
2022-12-31T03:16:58.328Z,98501.84
2022-12-31T03:18:04.347Z,98510.53
2022-12-31T03:19:24.590Z,98512.44
2022-12-31T03:20:48.226Z,98505.94
2022-12-31T03:22:08.523Z,98516.63
2022-12-31T03:23:12.914Z,98512.72
2022-12-31T03:24:33.307Z,98525.63
2022-12-31T03:25:35.691Z,98536.16
2022-12-31T03:26:37.754Z,98532.84
2022-12-31T03:27:40.716Z,98545.72
2022-12-31T03:28:47.675Z,98540.56
2022-12-31T03:29:49.762Z,98545.78
2022-12-31T03:30:54.209Z,98545.03
2022-12-31T03:31:56.026Z,98541.63
2022-12-31T03:33:00.360Z,98540.69
2022-12-31T03:34:02.178Z,98538.13
2022-12-31T03:35:05.731Z,98545.72
2022-12-31T03:36:10.696Z,98543.81
2022-12-31T03:37:12.441Z,98542.91
2022-12-31T03:38:15.710Z,98541.09
2022-12-31T03:39:17.870Z,98535.78
2022-12-31T03:40:22.699Z,98533.97
2022-12-31T03:41:25.647Z,98533.88
2022-12-31T03:42:28.890Z,98536.31
2022-12-31T03:43:31.605Z,98537.97
2022-12-31T03:44:33.434Z,98537.00
2022-12-31T03:45:36.277Z,98537.81
2022-12-31T03:46:38.193Z,98542.88
2022-12-31T03:47:41.298Z,98541.13
2022-12-31T03:48:44.416Z,98535.03
2022-12-31T03:49:47.165Z,98543.47
2022-12-31T03:50:50.390Z,98533.09
2022-12-31T03:51:52.144Z,98525.38
2022-12-31T03:52:55.001Z,98530.47
2022-12-31T03:53:56.815Z,98538.09
2022-12-31T03:54:59.549Z,98533.69
2022-12-31T03:56:01.337Z,98543.84
2022-12-31T03:57:04.300Z,98542.47
2022-12-31T03:58:07.312Z,98541.91
2022-12-31T03:59:09.149Z,98533.38
2022-12-31T04:00:14.787Z,98539.59
2022-12-31T04:01:16.806Z,98545.94
2022-12-31T04:02:24.715Z,98538.44
2022-12-31T04:03:30.997Z,98528.47
2022-12-31T04:04:34.137Z,98538.19
2022-12-31T04:05:36.901Z,98540.28
2022-12-31T04:06:38.976Z,98540.59
2022-12-31T04:07:42.373Z,98536.69
2022-12-31T04:08:44.140Z,98534.31
2022-12-31T04:09:46.936Z,98547.59
2022-12-31T04:10:49.694Z,98544.50
2022-12-31T04:11:51.486Z,98546.72
2022-12-31T04:12:54.730Z,98549.72
2022-12-31T04:13:59.177Z,98548.53
2022-12-31T04:15:01.922Z,98547.25
2022-12-31T04:16:03.919Z,98550.31
2022-12-31T04:17:07.608Z,98549.97
2022-12-31T04:18:09.399Z,98547.00
2022-12-31T04:19:12.338Z,98537.06
2022-12-31T04:20:17.165Z,98543.50
2022-12-31T04:21:18.967Z,98544.06
2022-12-31T04:22:21.888Z,98547.94
2022-12-31T04:23:23.691Z,98543.31
2022-12-31T04:24:26.883Z,98542.97
2022-12-31T04:25:29.392Z,98547.78
2022-12-31T04:26:34.131Z,98544.72
2022-12-31T04:27:36.011Z,98547.75
2022-12-31T04:28:38.925Z,98548.31
2022-12-31T04:29:40.782Z,98551.53
2022-12-31T04:30:46.167Z,98554.56
2022-12-31T04:31:47.991Z,98558.53
2022-12-31T04:32:50.810Z,98557.31
2022-12-31T04:33:52.605Z,98565.69
2022-12-31T04:34:56.308Z,98561.28
2022-12-31T04:36:02.022Z,98566.88
2022-12-31T04:37:05.344Z,98563.19
2022-12-31T04:38:07.541Z,98566.50
2022-12-31T04:39:10.287Z,98565.28
2022-12-31T04:40:12.445Z,98572.88
2022-12-31T04:41:17.896Z,98571.00
2022-12-31T04:42:20.715Z,98570.91
2022-12-31T04:43:22.881Z,98567.41
2022-12-31T04:44:29.489Z,98575.06
2022-12-31T04:45:31.373Z,98576.72
2022-12-31T04:46:34.968Z,98574.13
2022-12-31T04:47:37.202Z,98579.94
2022-12-31T04:48:40.015Z,98579.00
2022-12-31T04:49:44.292Z,98578.00
2022-12-31T04:50:46.394Z,98575.31
2022-12-31T04:51:50.497Z,98573.53
2022-12-31T04:52:52.247Z,98575.19
2022-12-31T04:53:55.652Z,98573.44
2022-12-31T04:54:57.602Z,98574.38
2022-12-31T04:56:00.360Z,98577.72
2022-12-31T04:57:21.390Z,98576.03
2022-12-31T04:58:23.508Z,98576.78
2022-12-31T04:59:26.486Z,98574.09
2022-12-31T05:00:28.296Z,98575.66
2022-12-31T05:01:31.240Z,98577.31
2022-12-31T05:02:33.245Z,98583.22
2022-12-31T05:03:36.656Z,98582.19
2022-12-31T05:04:38.544Z,98584.69
2022-12-31T05:05:42.810Z,98589.75
2022-12-31T05:06:45.537Z,98588.75
2022-12-31T05:07:48.703Z,98591.31
2022-12-31T05:08:51.471Z,98588.63
2022-12-31T05:09:53.280Z,98597.97
2022-12-31T05:10:56.536Z,98587.41
2022-12-31T05:11:58.315Z,98588.16
2022-12-31T05:13:01.023Z,98594.03
2022-12-31T05:14:04.208Z,98593.13
2022-12-31T05:15:07.596Z,98593.13
2022-12-31T05:16:10.829Z,98595.69
2022-12-31T05:17:12.942Z,98593.94
2022-12-31T05:18:16.007Z,98597.34
2022-12-31T05:19:18.027Z,98594.69
2022-12-31T05:20:20.886Z,98593.66
2022-12-31T05:21:23.700Z,98597.88
2022-12-31T05:22:31.713Z,98591.78
2022-12-31T05:23:36.423Z,98589.28
2022-12-31T05:24:38.246Z,98584.00
2022-12-31T05:25:41.289Z,98584.75
2022-12-31T05:26:43.061Z,98580.22
2022-12-31T05:27:45.955Z,98578.44
2022-12-31T05:28:49.054Z,98584.47
2022-12-31T05:29:50.961Z,98576.59
2022-12-31T05:30:53.825Z,98574.81
2022-12-31T05:31:55.649Z,98574.00
2022-12-31T05:32:58.473Z,98574.00
2022-12-31T05:34:01.394Z,98579.28
2022-12-31T05:35:04.061Z,98581.88
2022-12-31T05:36:07.350Z,98579.28
2022-12-31T05:37:09.303Z,98581.94
2022-12-31T05:38:12.269Z,98576.88
2022-12-31T05:39:15.951Z,98574.28
2022-12-31T05:40:18.749Z,98580.41
2022-12-31T05:41:21.495Z,98577.00
2022-12-31T05:42:23.503Z,98581.22
2022-12-31T05:43:26.333Z,98583.72
2022-12-31T05:44:28.268Z,98586.13
2022-12-31T05:45:31.518Z,98584.25
2022-12-31T05:46:33.437Z,98586.63
2022-12-31T05:47:36.197Z,98583.94
2022-12-31T05:48:39.025Z,98581.28
2022-12-31T05:49:40.879Z,98588.19
2022-12-31T05:50:43.622Z,98587.28
2022-12-31T05:52:04.049Z,98589.22
2022-12-31T05:53:06.785Z,98586.75
2022-12-31T05:54:08.551Z,98588.59
2022-12-31T05:55:14.414Z,98592.31
2022-12-31T05:56:17.843Z,98596.88
2022-12-31T05:57:20.572Z,98593.66
2022-12-31T05:58:22.433Z,98601.53
2022-12-31T05:59:25.297Z,98603.34
2022-12-31T06:00:28.247Z,98602.47
2022-12-31T06:01:31.101Z,98605.03
2022-12-31T06:02:33.254Z,98605.88
2022-12-31T06:03:36.088Z,98604.09
2022-12-31T06:04:37.885Z,98609.91
2022-12-31T06:05:42.002Z,98601.31
2022-12-31T06:06:43.759Z,98603.00
2022-12-31T06:07:47.436Z,98609.81
2022-12-31T06:08:49.637Z,98601.22
2022-12-31T06:09:52.468Z,98596.13
2022-12-31T06:10:55.680Z,98606.59
2022-12-31T06:11:58.467Z,98600.69
2022-12-31T06:13:01.199Z,98596.41
2022-12-31T06:14:03.015Z,98607.63
2022-12-31T06:15:07.023Z,98612.88
2022-12-31T06:16:12.239Z,98611.25
2022-12-31T06:17:15.295Z,98621.59
2022-12-31T06:18:18.291Z,98613.00
2022-12-31T06:19:20.075Z,98613.00
2022-12-31T06:20:23.349Z,98616.41
2022-12-31T06:21:25.587Z,98619.72
2022-12-31T06:22:28.308Z,98625.44
2022-12-31T06:23:30.204Z,98622.25
2022-12-31T06:24:33.180Z,98614.84
2022-12-31T06:25:37.013Z,98621.38
2022-12-31T06:26:40.118Z,98621.06
2022-12-31T06:27:43.419Z,98617.25
2022-12-31T06:28:45.244Z,98614.78
2022-12-31T06:29:51.018Z,98616.88
2022-12-31T06:30:59.482Z,98619.88
2022-12-31T06:32:02.258Z,98620.44
2022-12-31T06:33:04.151Z,98624.47
2022-12-31T06:34:07.345Z,98620.94
2022-12-31T06:35:09.501Z,98624.13
2022-12-31T06:36:14.733Z,98612.94
2022-12-31T06:37:17.194Z,98622.47
2022-12-31T06:38:19.961Z,98616.47
2022-12-31T06:39:21.754Z,98611.41
2022-12-31T06:40:24.663Z,98618.13
2022-12-31T06:41:26.474Z,98600.91
2022-12-31T06:42:31.812Z,98601.16
2022-12-31T06:43:34.689Z,98601.34
2022-12-31T06:44:37.409Z,98608.47
2022-12-31T06:45:39.635Z,98597.56
2022-12-31T06:46:42.457Z,98602.22
2022-12-31T06:47:44.310Z,98593.94
2022-12-31T06:48:47.118Z,98596.22
2022-12-31T06:49:50.183Z,98597.53
2022-12-31T06:50:52.061Z,98602.19
2022-12-31T06:51:54.787Z,98600.94
2022-12-31T06:52:56.663Z,98595.44
2022-12-31T06:53:59.827Z,98586.59
2022-12-31T06:55:03.143Z,98590.75
2022-12-31T06:56:06.387Z,98601.69
2022-12-31T06:57:10.083Z,98605.84
2022-12-31T06:58:14.248Z,98613.47
2022-12-31T06:59:26.227Z,98615.81
2022-12-31T07:00:28.801Z,98620.75
2022-12-31T07:01:50.797Z,98623.78
2022-12-31T07:03:16.907Z,98624.19
2022-12-31T07:04:56.085Z,98622.03
2022-12-31T07:06:03.042Z,98619.00
2022-12-31T07:07:08.015Z,98626.75
2022-12-31T07:08:19.434Z,98622.63
2022-12-31T07:09:25.879Z,98632.88
2022-12-31T07:10:38.516Z,98641.34
2022-12-31T07:11:46.583Z,98645.63
2022-12-31T07:13:03.013Z,98643.75
2022-12-31T07:14:15.046Z,98640.16
2022-12-31T07:15:20.212Z,98639.13
2022-12-31T07:16:33.821Z,98636.28
2022-12-31T07:17:43.232Z,98636.16
2022-12-31T07:18:49.068Z,98638.66
2022-12-31T07:19:58.985Z,98637.66
2022-12-31T07:21:01.372Z,98633.97
2022-12-31T07:22:04.698Z,98637.16
2022-12-31T07:23:07.969Z,98635.06
2022-12-31T07:24:12.810Z,98636.59
2022-12-31T07:25:15.964Z,98643.25
2022-12-31T07:26:22.371Z,98643.81
2022-12-31T07:27:44.625Z,98647.66
2022-12-31T07:28:54.623Z,98649.25
2022-12-31T07:30:03.863Z,98647.25
2022-12-31T07:31:09.123Z,98652.16
2022-12-31T07:32:18.938Z,98654.47
2022-12-31T07:33:36.040Z,98651.41
2022-12-31T07:34:42.345Z,98660.63
2022-12-31T07:35:51.196Z,98658.56
2022-12-31T07:37:00.955Z,98665.97
2022-12-31T07:38:09.225Z,98668.88
2022-12-31T07:39:14.539Z,98670.16
2022-12-31T07:40:22.150Z,98677.31
2022-12-31T07:41:37.816Z,98667.09
2022-12-31T07:42:58.221Z,98674.78
2022-12-31T07:44:04.626Z,98666.13
2022-12-31T07:45:14.829Z,98657.97
2022-12-31T07:46:21.425Z,98655.88
2022-12-31T07:47:25.903Z,98656.50
2022-12-31T07:48:29.405Z,98645.38
2022-12-31T07:49:33.564Z,98653.47
2022-12-31T07:50:37.512Z,98652.72
2022-12-31T07:51:41.283Z,98652.06
2022-12-31T07:52:43.708Z,98660.25
2022-12-31T07:53:46.867Z,98658.88
2022-12-31T07:54:48.739Z,98657.72
2022-12-31T07:55:55.850Z,98649.84
2022-12-31T07:56:58.829Z,98651.59
2022-12-31T07:58:04.939Z,98648.16
2022-12-31T07:59:18.436Z,98653.34
2022-12-31T08:00:26.434Z,98652.66
2022-12-31T08:01:42.430Z,98656.91
2022-12-31T08:03:04.962Z,98665.19
2022-12-31T08:04:10.419Z,98661.44
2022-12-31T08:05:19.824Z,98657.56
2022-12-31T08:06:29.330Z,98649.22
2022-12-31T08:07:35.983Z,98652.22
2022-12-31T08:08:51.300Z,98660.50
2022-12-31T08:10:05.110Z,98657.78
2022-12-31T08:11:14.862Z,98653.53
2022-12-31T08:12:19.034Z,98655.41
2022-12-31T08:13:21.007Z,98657.28
2022-12-31T08:14:24.935Z,98661.88
2022-12-31T08:15:30.692Z,98659.53
2022-12-31T08:16:34.195Z,98657.88
2022-12-31T08:17:36.305Z,98653.50
2022-12-31T08:18:39.736Z,98660.09
2022-12-31T08:19:43.047Z,98662.38
2022-12-31T08:20:52.694Z,98663.81
2022-12-31T08:22:05.427Z,98661.97
2022-12-31T08:23:20.398Z,98665.88
2022-12-31T08:24:27.650Z,98663.88
2022-12-31T08:25:37.270Z,98669.69
2022-12-31T08:26:52.837Z,98678.66
2022-12-31T08:28:03.735Z,98673.13
2022-12-31T08:29:16.490Z,98685.47
2022-12-31T08:30:20.122Z,98683.16
2022-12-31T08:31:49.662Z,98677.97
2022-12-31T08:33:10.170Z,98678.13
2022-12-31T08:34:17.713Z,98674.94
2022-12-31T08:35:33.001Z,98675.28
2022-12-31T08:36:45.674Z,98664.53
2022-12-31T08:37:52.637Z,98657.22
2022-12-31T08:38:57.297Z,98655.84
2022-12-31T08:40:11.536Z,98655.38
2022-12-31T08:41:18.888Z,98662.00
2022-12-31T08:42:28.868Z,98660.81
2022-12-31T08:43:39.814Z,98661.41
2022-12-31T08:44:49.415Z,98666.97
2022-12-31T08:45:52.416Z,98663.78
2022-12-31T08:47:01.221Z,98660.69
2022-12-31T08:48:05.394Z,98670.41
2022-12-31T08:49:09.880Z,98672.16
2022-12-31T08:50:14.669Z,98668.84
2022-12-31T08:51:20.689Z,98674.97
2022-12-31T08:52:25.129Z,98674.22
2022-12-31T08:53:28.332Z,98691.88
2022-12-31T08:54:31.772Z,98687.81
2022-12-31T08:55:34.399Z,98694.22
2022-12-31T08:56:48.845Z,98687.66
2022-12-31T08:57:59.129Z,98690.72
2022-12-31T08:59:13.620Z,98690.47
2022-12-31T09:00:18.267Z,98685.97
2022-12-31T09:01:24.353Z,98683.38
2022-12-31T09:02:49.384Z,98672.94
2022-12-31T09:04:02.544Z,98676.75
2022-12-31T09:05:10.938Z,98670.94
2022-12-31T09:06:20.257Z,98673.69
2022-12-31T09:07:31.000Z,98679.25
2022-12-31T09:08:39.779Z,98668.13
2022-12-31T09:09:49.303Z,98670.63
2022-12-31T09:10:55.244Z,98673.09
2022-12-31T09:11:59.856Z,98668.47
2022-12-31T09:13:07.698Z,98671.66
2022-12-31T09:14:19.764Z,98671.38
2022-12-31T09:15:27.231Z,98664.75
2022-12-31T09:16:35.053Z,98666.94
2022-12-31T09:17:46.054Z,98663.72
2022-12-31T09:18:48.879Z,98652.09
2022-12-31T09:19:51.063Z,98658.72
2022-12-31T09:20:54.524Z,98657.25
2022-12-31T09:21:57.691Z,98656.59
2022-12-31T09:23:03.173Z,98653.38
2022-12-31T09:24:09.542Z,98648.47
2022-12-31T09:25:15.702Z,98642.03
2022-12-31T09:26:33.301Z,98652.81
2022-12-31T09:27:40.072Z,98648.97
2022-12-31T09:28:50.631Z,98647.78
2022-12-31T09:29:56.239Z,98645.59
2022-12-31T09:31:05.767Z,98640.00
2022-12-31T09:32:14.369Z,98638.38
2022-12-31T09:33:30.958Z,98640.34
2022-12-31T09:34:37.418Z,98638.16
2022-12-31T09:35:45.255Z,98648.06
2022-12-31T09:36:52.177Z,98648.34
2022-12-31T09:37:58.171Z,98652.66
2022-12-31T09:39:06.377Z,98656.69
2022-12-31T09:40:24.635Z,98659.06
2022-12-31T09:41:43.109Z,98649.72
2022-12-31T09:42:59.471Z,98659.66
2022-12-31T09:44:41.073Z,98658.53
2022-12-31T09:46:26.010Z,98658.13
2022-12-31T09:48:10.220Z,98654.13
2022-12-31T09:49:41.765Z,98661.03
2022-12-31T09:51:08.465Z,98658.31
2022-12-31T09:52:16.377Z,98663.53
2022-12-31T09:53:40.735Z,98660.22
2022-12-31T09:54:53.893Z,98653.47
2022-12-31T09:55:59.436Z,98663.09
2022-12-31T09:57:19.168Z,98657.16
2022-12-31T09:58:34.702Z,98652.91
2022-12-31T09:59:42.035Z,98657.47
2022-12-31T10:00:49.489Z,98654.00
2022-12-31T10:01:58.127Z,98656.75
2022-12-31T10:03:20.287Z,98647.81
2022-12-31T10:04:47.806Z,98647.66
2022-12-31T10:05:59.796Z,98653.72
2022-12-31T10:07:13.365Z,98649.06
2022-12-31T10:08:31.010Z,98642.72
2022-12-31T10:09:43.829Z,98651.41
2022-12-31T10:10:50.939Z,98646.56
2022-12-31T10:12:04.783Z,98641.34
2022-12-31T10:13:28.036Z,98641.06
2022-12-31T10:14:47.114Z,98640.78
2022-12-31T10:16:09.835Z,98632.66
2022-12-31T10:17:22.546Z,98643.53
2022-12-31T10:18:56.972Z,98639.81
2022-12-31T10:20:33.729Z,98637.72
2022-12-31T10:21:47.617Z,98634.84
2022-12-31T10:23:35.627Z,98625.88
2022-12-31T10:24:57.619Z,98628.38
2022-12-31T10:26:11.857Z,98633.03
2022-12-31T10:27:35.570Z,98634.41
2022-12-31T10:28:45.220Z,98630.50
2022-12-31T10:29:54.858Z,98633.69
2022-12-31T10:31:06.623Z,98639.59
2022-12-31T10:32:17.773Z,98643.72
2022-12-31T10:33:34.013Z,98644.28
2022-12-31T10:34:48.784Z,98645.91
2022-12-31T10:35:55.771Z,98657.06
2022-12-31T10:37:05.702Z,98645.09
2022-12-31T10:38:19.428Z,98647.72
2022-12-31T10:39:32.342Z,98647.56
2022-12-31T10:40:52.861Z,98654.03
2022-12-31T10:42:12.082Z,98663.69
2022-12-31T10:43:44.077Z,98663.84
2022-12-31T10:45:05.938Z,98671.84
2022-12-31T10:46:29.010Z,98666.91
2022-12-31T10:48:00.575Z,98680.25
2022-12-31T10:49:28.580Z,98674.34
2022-12-31T10:50:50.183Z,98679.59
2022-12-31T10:52:28.425Z,98682.88
2022-12-31T10:54:15.769Z,98682.06
2022-12-31T10:55:40.759Z,98675.16
2022-12-31T10:57:16.881Z,98670.63
2022-12-31T10:58:58.119Z,98663.44
2022-12-31T11:00:17.183Z,98658.38
2022-12-31T11:01:20.557Z,98661.66
2022-12-31T11:02:55.791Z,98657.09
2022-12-31T11:04:34.575Z,98647.44
2022-12-31T11:06:09.901Z,98646.63
2022-12-31T11:07:36.610Z,98649.78
2022-12-31T11:09:17.810Z,98648.81
2022-12-31T11:10:48.764Z,98658.03
2022-12-31T11:11:54.749Z,98650.84
2022-12-31T11:13:16.598Z,98649.59
2022-12-31T11:14:43.743Z,98652.78
2022-12-31T11:16:02.830Z,98660.19
2022-12-31T11:17:24.423Z,98647.66
2022-12-31T11:18:31.788Z,98649.97
2022-12-31T11:19:38.432Z,98653.13
2022-12-31T11:20:55.911Z,98652.16
2022-12-31T11:22:21.643Z,98652.00
2022-12-31T11:23:35.047Z,98648.28
2022-12-31T11:24:48.262Z,98647.31
2022-12-31T11:25:57.904Z,98647.97
2022-12-31T11:27:11.843Z,98647.03
2022-12-31T11:28:42.534Z,98642.47
2022-12-31T11:29:57.848Z,98637.22
2022-12-31T11:31:13.467Z,98633.06
2022-12-31T11:32:27.329Z,98638.47
2022-12-31T11:33:39.237Z,98633.53
2022-12-31T11:35:14.933Z,98632.03
2022-12-31T11:36:21.475Z,98632.44
2022-12-31T11:37:34.793Z,98630.97
2022-12-31T11:38:39.800Z,98641.44
2022-12-31T11:39:50.027Z,98631.78
2022-12-31T11:41:00.133Z,98629.00
2022-12-31T11:42:07.927Z,98635.88
2022-12-31T11:43:23.482Z,98640.84
2022-12-31T11:44:35.576Z,98635.47
2022-12-31T11:45:55.615Z,98630.63
2022-12-31T11:47:08.912Z,98623.13
2022-12-31T11:48:32.831Z,98614.84
2022-12-31T11:49:50.273Z,98616.19
2022-12-31T11:50:58.998Z,98621.84
2022-12-31T11:52:31.864Z,98625.66
2022-12-31T11:54:04.229Z,98618.19
2022-12-31T11:55:28.605Z,98614.41
2022-12-31T11:56:35.047Z,98612.50
2022-12-31T11:57:39.865Z,98610.38
2022-12-31T11:58:47.243Z,98606.38
2022-12-31T11:59:50.512Z,98621.38
2022-12-31T12:00:56.148Z,98616.50
2022-12-31T12:02:03.230Z,98617.03
2022-12-31T12:03:08.122Z,98624.59
2022-12-31T12:04:12.157Z,98620.72
2022-12-31T12:05:16.031Z,98620.41
2022-12-31T12:06:22.169Z,98614.84
2022-12-31T12:07:24.236Z,98619.66
2022-12-31T12:08:27.526Z,98623.78
2022-12-31T12:09:32.585Z,98610.34
2022-12-31T12:10:43.710Z,98623.03
2022-12-31T12:11:46.442Z,98623.72
2022-12-31T12:12:49.229Z,98612.72
2022-12-31T12:13:52.298Z,98605.22
2022-12-31T12:14:55.619Z,98613.47
2022-12-31T12:15:59.863Z,98613.84
2022-12-31T12:17:05.482Z,98617.00
2022-12-31T12:18:10.524Z,98615.03
2022-12-31T12:19:18.846Z,98610.47
2022-12-31T12:20:26.797Z,98612.09
2022-12-31T12:21:30.090Z,98615.56
2022-12-31T12:22:32.647Z,98619.97
2022-12-31T12:23:35.401Z,98616.38
2022-12-31T12:24:37.544Z,98610.47
2022-12-31T12:25:44.679Z,98607.03
2022-12-31T12:26:49.724Z,98604.41
2022-12-31T12:27:52.872Z,98601.06
2022-12-31T12:28:54.666Z,98596.00
2022-12-31T12:29:57.603Z,98606.66
2022-12-31T12:31:02.235Z,98610.38
2022-12-31T12:32:08.167Z,98603.66
2022-12-31T12:33:16.827Z,98605.91
2022-12-31T12:34:24.844Z,98605.22
2022-12-31T12:35:30.445Z,98602.09
2022-12-31T12:36:32.965Z,98605.03
2022-12-31T12:37:36.972Z,98610.44
2022-12-31T12:38:39.812Z,98602.72
2022-12-31T12:39:42.575Z,98603.66
2022-12-31T12:40:57.370Z,98615.97
2022-12-31T12:42:02.305Z,98605.63
2022-12-31T12:43:05.159Z,98603.84
2022-12-31T12:44:09.329Z,98605.47
2022-12-31T12:45:16.374Z,98600.91
2022-12-31T12:46:22.329Z,98598.13
2022-12-31T12:47:26.976Z,98598.78
2022-12-31T12:48:37.934Z,98600.75
2022-12-31T12:49:42.795Z,98609.63
2022-12-31T12:50:47.123Z,98603.53
2022-12-31T12:52:04.431Z,98603.00
2022-12-31T12:53:27.712Z,98601.38
2022-12-31T12:54:37.832Z,98597.22
2022-12-31T12:55:43.453Z,98595.75
2022-12-31T12:56:53.366Z,98592.31
2022-12-31T12:58:01.160Z,98598.50
2022-12-31T12:59:27.646Z,98592.31
2022-12-31T13:00:34.999Z,98590.63
2022-12-31T13:01:42.066Z,98594.25
2022-12-31T13:02:56.099Z,98593.13
2022-12-31T13:04:34.635Z,98595.88
2022-12-31T13:05:48.089Z,98593.25
2022-12-31T13:07:11.707Z,98585.56
2022-12-31T13:08:25.247Z,98586.38
2022-12-31T13:09:40.219Z,98583.75
2022-12-31T13:11:02.397Z,98585.38
2022-12-31T13:12:15.392Z,98569.81
2022-12-31T13:13:25.200Z,98574.91
2022-12-31T13:14:31.361Z,98571.44
2022-12-31T13:15:38.972Z,98573.25
2022-12-31T13:16:43.685Z,98569.97
2022-12-31T13:18:01.280Z,98577.69
2022-12-31T13:19:09.103Z,98575.22